createdAt,value
2023-02-03T00:04:00.311Z,94331.22
2023-02-03T00:09:06.430Z,94293.63
2023-02-03T00:14:09.769Z,94360.75
2023-02-03T00:19:13.178Z,94347.72
2023-02-03T00:24:16.344Z,94340.47
2023-02-03T00:29:21.940Z,94316.22
2023-02-03T00:34:29.184Z,94330.34
2023-02-03T00:39:32.559Z,94332.41
2023-02-03T00:44:35.554Z,94297.50
2023-02-03T00:49:38.977Z,94336.09
2023-02-03T00:54:41.897Z,94310.81
2023-02-03T00:59:45.319Z,94331.97
2023-02-03T01:04:49.249Z,94319.88
2023-02-03T01:09:53.492Z,94330.69
2023-02-03T01:14:56.901Z,94332.59
2023-02-03T01:20:00.942Z,94319.94
2023-02-03T01:25:05.265Z,94316.38
2023-02-03T01:30:09.257Z,94328.63
2023-02-03T01:35:12.853Z,94310.81
2023-02-03T01:40:16.058Z,94323.59
2023-02-03T01:45:20.354Z,94334.72
2023-02-03T01:50:28.630Z,94326.16
2023-02-03T01:55:38.820Z,94326.28
2023-02-03T02:00:42.683Z,94307.47
2023-02-03T02:06:06.243Z,94304.97
2023-02-03T02:11:10.035Z,94303.78
2023-02-03T02:16:24.784Z,94323.81
2023-02-03T02:21:46.487Z,94314.34
2023-02-03T02:27:27.913Z,94332.97
2023-02-03T02:32:47.952Z,94312.28
2023-02-03T02:37:56.575Z,94313.97
2023-02-03T02:43:14.286Z,94342.94
2023-02-03T02:48:32.516Z,94337.69
2023-02-03T02:53:41.419Z,94349.84
2023-02-03T02:58:48.820Z,94341.16
2023-02-03T03:03:52.393Z,94336.09
2023-02-03T03:09:00.341Z,94338.47
2023-02-03T03:14:07.291Z,94336.78
2023-02-03T03:19:15.711Z,94340.38
2023-02-03T03:24:28.028Z,94347.25
2023-02-03T03:29:36.111Z,94342.25
2023-02-03T03:34:39.936Z,94339.31
2023-02-03T03:39:54.430Z,94333.34
2023-02-03T03:45:20.369Z,94347.28
2023-02-03T03:50:29.543Z,94324.84
2023-02-03T03:55:36.409Z,94331.34
2023-02-03T04:00:42.488Z,94341.41
2023-02-03T04:05:46.407Z,94351.97
2023-02-03T04:10:49.326Z,94320.59
2023-02-03T04:15:52.322Z,94272.91
2023-02-03T04:20:55.286Z,94345.69
2023-02-03T04:26:01.591Z,94336.81
2023-02-03T04:31:05.003Z,94349.97
2023-02-03T04:36:08.582Z,94332.53
2023-02-03T04:41:11.981Z,94335.81
2023-02-03T04:46:15.770Z,94343.00
2023-02-03T04:51:19.418Z,94320.19
2023-02-03T04:56:23.028Z,94343.00
2023-02-03T05:01:26.241Z,94348.38
2023-02-03T05:10:54.475Z,94355.94
2023-02-03T05:15:58.259Z,94367.47
2023-02-03T05:21:01.752Z,94367.38
2023-02-03T05:26:05.737Z,94367.97
2023-02-03T05:31:08.867Z,94374.69
2023-02-03T05:36:11.948Z,94380.94
2023-02-03T05:41:42.974Z,94368.28
2023-02-03T05:46:47.282Z,94380.34
2023-02-03T05:51:52.342Z,94386.94
2023-02-03T05:56:55.803Z,94394.50
2023-02-03T06:01:59.368Z,94407.84
2023-02-03T06:07:02.544Z,94419.69
2023-02-03T06:12:05.917Z,94427.00
2023-02-03T06:17:08.855Z,94420.03
2023-02-03T06:22:11.941Z,94417.84
2023-02-03T06:27:18.166Z,94423.59
2023-02-03T06:32:21.694Z,94434.06
2023-02-03T06:37:25.124Z,94442.59
2023-02-03T06:42:28.166Z,94437.72
2023-02-03T06:47:31.651Z,94445.22
2023-02-03T06:52:34.672Z,94440.97
2023-02-03T06:57:49.026Z,94447.06
2023-02-03T07:02:56.719Z,94449.41
2023-02-03T07:08:00.157Z,94439.72
2023-02-03T07:13:07.658Z,94439.94
2023-02-03T07:18:11.867Z,94445.78
2023-02-03T07:23:16.309Z,94442.59
2023-02-03T07:28:29.297Z,94452.59
2023-02-03T07:33:37.507Z,94449.38
2023-02-03T07:38:40.531Z,94458.53
2023-02-03T07:43:43.575Z,94447.22
2023-02-03T07:48:46.695Z,94446.00
2023-02-03T07:53:49.800Z,94449.09
2023-02-03T07:58:53.869Z,94471.44
2023-02-03T08:03:57.082Z,94464.13
2023-02-03T08:09:00.471Z,94468.47
2023-02-03T08:14:04.486Z,94469.78
2023-02-03T08:19:08.686Z,94473.88
2023-02-03T08:24:12.208Z,94483.63
2023-02-03T08:29:15.723Z,94478.03
2023-02-03T08:34:19.339Z,94473.72
2023-02-03T08:39:23.616Z,94464.88
2023-02-03T08:44:26.626Z,94460.88
2023-02-03T08:49:31.534Z,94477.72
2023-02-03T08:54:35.315Z,94474.88
2023-02-03T08:59:41.097Z,94481.72
2023-02-03T09:04:44.860Z,94475.28
2023-02-03T09:09:48.730Z,94489.28
2023-02-03T09:14:51.915Z,94498.91
2023-02-03T09:19:55.673Z,94507.41
2023-02-03T09:24:58.814Z,94501.50
2023-02-03T09:30:02.822Z,94498.28
2023-02-03T09:35:06.127Z,94505.63
2023-02-03T09:40:21.095Z,94512.03
2023-02-03T09:45:29.894Z,94518.31
2023-02-03T09:50:37.627Z,94512.03
2023-02-03T09:55:43.669Z,94520.28
2023-02-03T10:00:49.347Z,94523.13
2023-02-03T10:06:17.092Z,94523.06
2023-02-03T10:11:44.503Z,94530.50
2023-02-03T10:17:22.526Z,94531.50
2023-02-03T10:22:29.886Z,94525.63
2023-02-03T10:27:35.597Z,94501.72
2023-02-03T10:32:38.936Z,94510.63
2023-02-03T10:37:45.950Z,94517.00
2023-02-03T10:43:08.220Z,94503.50
2023-02-03T10:48:17.471Z,94514.59
2023-02-03T10:53:34.069Z,94494.91
2023-02-03T10:58:39.223Z,94496.66
2023-02-03T11:03:44.624Z,94489.56
2023-02-03T11:08:50.878Z,94492.66
2023-02-03T11:14:14.042Z,94500.59
2023-02-03T11:19:49.031Z,94500.53
2023-02-03T11:24:52.355Z,94492.88
2023-02-03T11:30:30.420Z,94493.63
2023-02-03T11:35:38.202Z,94489.16
2023-02-03T11:40:41.874Z,94483.19
2023-02-03T11:45:49.216Z,94468.47
2023-02-03T11:51:04.533Z,94467.59
2023-02-03T11:56:29.023Z,94464.38
2023-02-03T12:01:51.027Z,94452.44
2023-02-03T12:06:57.125Z,94432.50
2023-02-03T12:12:25.894Z,94422.25
2023-02-03T12:17:29.403Z,94425.59
2023-02-03T12:22:54.329Z,94432.19
2023-02-03T12:28:33.362Z,94431.41
2023-02-03T12:33:48.003Z,94429.44
2023-02-03T12:38:58.685Z,94420.25
2023-02-03T12:44:08.837Z,94412.53
2023-02-03T12:49:33.459Z,94402.50
2023-02-03T12:55:12.126Z,94399.34
2023-02-03T13:00:34.240Z,94397.22
2023-02-03T13:05:40.422Z,94394.34
2023-02-03T13:10:55.878Z,94400.56
2023-02-03T13:16:00.857Z,94391.53
2023-02-03T13:21:04.272Z,94407.63
2023-02-03T13:26:22.866Z,94407.34
2023-02-03T13:31:53.228Z,94405.56
2023-02-03T13:37:18.954Z,94422.19
2023-02-03T13:42:26.984Z,94420.56
2023-02-03T13:47:32.894Z,94417.41
2023-02-03T13:52:44.832Z,94422.44
2023-02-03T13:57:52.330Z,94414.22
2023-02-03T14:02:57.001Z,94429.78
2023-02-03T14:08:30.049Z,94430.00
2023-02-03T14:13:33.035Z,94427.56
2023-02-03T14:18:45.642Z,94424.59
2023-02-03T14:24:07.097Z,94441.47
2023-02-03T14:29:32.816Z,94433.94
2023-02-03T14:34:49.691Z,94443.97
2023-02-03T14:40:19.686Z,94447.72
2023-02-03T14:45:34.405Z,94444.25
2023-02-03T14:50:56.279Z,94441.63
2023-02-03T14:56:24.255Z,94433.25
2023-02-03T15:01:50.303Z,94440.72
2023-02-03T15:06:54.201Z,94448.84
2023-02-03T15:11:57.871Z,94454.56
2023-02-03T15:17:03.920Z,94461.38
2023-02-03T15:22:28.631Z,94473.34
2023-02-03T15:27:33.181Z,94479.66
2023-02-03T15:32:41.810Z,94479.75
2023-02-03T15:37:45.092Z,94463.28
2023-02-03T15:42:58.361Z,94469.06
2023-02-03T15:48:20.896Z,94467.81
2023-02-03T15:53:45.163Z,94460.31
2023-02-03T15:58:50.820Z,94459.03
2023-02-03T16:03:56.994Z,94462.34
2023-02-03T16:09:01.054Z,94460.78
2023-02-03T16:14:07.824Z,94461.81
2023-02-03T16:19:16.295Z,94459.72
2023-02-03T16:24:42.843Z,94475.13
2023-02-03T16:30:04.142Z,94485.28
2023-02-03T16:35:29.109Z,94485.25
2023-02-03T16:40:51.171Z,94494.13
2023-02-03T16:46:15.886Z,94500.50
2023-02-03T16:51:18.989Z,94494.66
2023-02-03T16:56:22.120Z,94495.19
2023-02-03T17:01:25.347Z,94502.72
2023-02-03T17:06:29.019Z,94502.38
2023-02-03T17:11:32.862Z,94508.47
2023-02-03T17:16:35.951Z,94505.50
2023-02-03T17:21:39.600Z,94494.31
2023-02-03T17:26:42.613Z,94485.72
2023-02-03T17:31:46.606Z,94474.53
2023-02-03T17:36:50.288Z,94486.22
2023-02-03T17:57:56.474Z,94477.81
2023-02-03T18:02:59.860Z,94476.34
2023-02-03T18:08:09.188Z,94481.66
2023-02-03T18:13:23.436Z,94487.56
2023-02-03T18:18:28.355Z,94491.44
2023-02-03T18:23:33.213Z,94476.81
2023-02-03T18:28:38.421Z,94471.13
2023-02-03T18:33:43.335Z,94476.09
2023-02-03T18:38:47.356Z,94475.53
2023-02-03T18:43:51.619Z,94472.69
2023-02-03T18:48:56.536Z,94464.41
2023-02-03T18:54:00.573Z,94466.00
2023-02-03T18:59:11.487Z,94472.06
2023-02-03T19:04:14.534Z,94477.38
2023-02-03T19:09:19.590Z,94468.66
2023-02-03T19:14:24.882Z,94471.84
2023-02-03T19:19:28.615Z,94465.03
2023-02-03T19:24:31.734Z,94472.22
2023-02-03T19:29:34.954Z,94457.50
2023-02-03T19:34:38.342Z,94450.84
2023-02-03T19:39:41.439Z,94456.47
2023-02-03T19:44:44.517Z,94441.91
2023-02-03T19:49:47.597Z,94445.22
2023-02-03T19:54:54.050Z,94449.19
2023-02-03T19:59:57.321Z,94449.91
2023-02-03T20:05:00.829Z,94444.38
2023-02-03T20:10:03.986Z,94447.53
2023-02-03T20:15:07.803Z,94453.63
2023-02-03T20:20:11.409Z,94450.88
2023-02-03T20:25:14.597Z,94439.13
2023-02-03T20:30:18.653Z,94432.41
2023-02-03T20:35:24.179Z,94421.78
2023-02-03T20:40:30.144Z,94422.75
2023-02-03T20:45:34.892Z,94424.81
2023-02-03T20:50:42.474Z,94417.94
2023-02-03T20:55:47.340Z,94398.41
2023-02-03T21:00:51.847Z,94385.84
2023-02-03T21:05:54.947Z,94381.06
2023-02-03T21:10:58.374Z,94367.66
2023-02-03T21:16:05.094Z,94352.22
2023-02-03T21:21:25.126Z,94352.34
2023-02-03T21:26:31.272Z,94316.41
2023-02-03T21:31:35.832Z,94352.16
2023-02-03T21:36:39.274Z,94348.53
2023-02-03T21:41:42.836Z,94342.69
2023-02-03T21:46:46.542Z,94332.00
2023-02-03T21:51:49.919Z,94332.56
2023-02-03T21:56:54.613Z,94338.47
2023-02-03T22:02:01.034Z,94322.06
2023-02-03T22:07:15.768Z,94328.06
2023-02-03T22:12:18.756Z,94337.66
2023-02-03T22:17:22.349Z,94337.69
2023-02-03T22:22:25.286Z,94342.13
2023-02-03T22:27:28.247Z,94336.41
2023-02-03T22:32:31.209Z,94351.63
2023-02-03T22:37:34.540Z,94357.00
2023-02-03T22:42:37.578Z,94357.91
2023-02-03T22:47:41.165Z,94345.91
2023-02-03T22:52:44.494Z,94346.56
2023-02-03T22:57:50.082Z,94343.72
2023-02-03T23:02:53.655Z,94325.28
2023-02-03T23:07:56.916Z,94313.66
2023-02-03T23:13:01.290Z,94316.22
2023-02-03T23:18:04.454Z,94305.91
2023-02-03T23:23:07.694Z,94278.91
2023-02-03T23:28:10.723Z,94274.19
2023-02-03T23:33:13.861Z,94271.28
2023-02-03T23:38:18.251Z,94266.44
2023-02-03T23:43:21.743Z,94270.84
2023-02-03T23:48:25.079Z,94260.69
2023-02-03T23:53:28.489Z,94252.16
2023-02-03T23:58:32.650Z,94242.59
